createdAt,value
2018-12-08T00:00:32.326Z,47.99
2018-12-08T00:01:32.407Z,48.05
2018-12-08T00:02:31.933Z,48.04
2018-12-08T00:03:31.989Z,48.03
2018-12-08T00:04:32.788Z,48.04
2018-12-08T00:05:32.850Z,47.98
2018-12-08T00:06:32.231Z,48
2018-12-08T00:07:32.428Z,48.03
2018-12-08T00:08:32.177Z,48.06
2018-12-08T00:09:32.169Z,48.01
2018-12-08T00:10:32.175Z,48
2018-12-08T00:11:32.061Z,48.05
2018-12-08T00:12:31.916Z,48.03
2018-12-08T00:13:32.296Z,48.11
2018-12-08T00:14:32.817Z,48.13
2018-12-08T00:15:32.379Z,48.07
2018-12-08T00:16:32.036Z,48.08
2018-12-08T00:17:32.238Z,48.13
2018-12-08T00:18:32.027Z,48.13
2018-12-08T00:19:32.134Z,48.12
2018-12-08T00:20:32.076Z,48.09
2018-12-08T00:21:31.934Z,48.09
2018-12-08T00:22:32.163Z,48.08
2018-12-08T00:23:31.989Z,48.13
2018-12-08T00:24:32.212Z,48.14
2018-12-08T00:25:32.359Z,48.15
2018-12-08T00:26:32.090Z,48.14
2018-12-08T00:27:31.985Z,48.09
2018-12-08T00:28:32.120Z,48.14
2018-12-08T00:29:32.061Z,48.18
2018-12-08T00:30:31.933Z,48.13
2018-12-08T00:31:32.221Z,48.05
2018-12-08T00:32:32.121Z,48.18
2018-12-08T00:33:32.073Z,48.18
2018-12-08T00:34:32.230Z,48.16
2018-12-08T00:35:32.138Z,48.13
2018-12-08T00:36:31.998Z,48.17
2018-12-08T00:37:32.197Z,48.17
2018-12-08T00:38:32.165Z,48.19
2018-12-08T00:39:32.453Z,48.25
2018-12-08T00:40:32.246Z,48.21
2018-12-08T00:41:32.331Z,48.23
2018-12-08T00:42:32.271Z,48.22
2018-12-08T00:43:31.961Z,48.2
2018-12-08T00:44:32.182Z,48.25
2018-12-08T00:45:32.185Z,48.2
2018-12-08T00:46:32.066Z,48.16
2018-12-08T00:47:32.488Z,48.17
2018-12-08T00:48:31.911Z,48.15
2018-12-08T00:49:32.183Z,48.22
2018-12-08T00:50:32.088Z,48.21
2018-12-08T00:51:32.447Z,48.2
2018-12-08T00:52:32.500Z,48.17
2018-12-08T00:53:32.373Z,48.21
2018-12-08T00:54:32.410Z,48.22
2018-12-08T00:55:32.392Z,48.21
2018-12-08T00:56:32.110Z,48.24
2018-12-08T00:57:31.917Z,48.23
2018-12-08T00:58:32.331Z,48.29
2018-12-08T00:59:32.322Z,48.22
2018-12-08T01:00:32.026Z,48.25
2018-12-08T01:01:32.354Z,48.23
2018-12-08T01:02:31.967Z,48.21
2018-12-08T01:03:32.147Z,48.24
2018-12-08T01:04:31.891Z,48.25
2018-12-08T01:05:32.277Z,48.23
2018-12-08T01:06:32.056Z,48.21
2018-12-08T01:07:32.074Z,48.21
2018-12-08T01:08:32.965Z,48.21
2018-12-08T01:09:32.719Z,48.23
2018-12-08T01:10:32.512Z,48.17
2018-12-08T01:11:32.348Z,48.22
2018-12-08T01:12:32.396Z,48.26
2018-12-08T01:13:32.368Z,48.29
2018-12-08T01:14:32.109Z,48.29
2018-12-08T01:15:32.125Z,48.3
2018-12-08T01:16:32.359Z,48.23
2018-12-08T01:17:32.386Z,48.26
2018-12-08T01:18:32.301Z,48.27
2018-12-08T01:19:32.222Z,48.31
2018-12-08T01:20:32.401Z,48.19
2018-12-08T01:21:32.161Z,48.18
2018-12-08T01:22:32.163Z,48.3
2018-12-08T01:23:32.166Z,48.27
2018-12-08T01:24:32.831Z,48.27
2018-12-08T01:25:32.626Z,48.25
2018-12-08T01:26:32.034Z,48.27
2018-12-08T01:27:31.918Z,48.29
2018-12-08T01:28:32.447Z,48.25
2018-12-08T01:29:32.749Z,48.26
2018-12-08T01:30:32.011Z,48.22
2018-12-08T01:31:32.114Z,48.25
2018-12-08T01:32:32.268Z,48.24
2018-12-08T01:33:31.889Z,48.27
2018-12-08T01:34:32.202Z,48.29
2018-12-08T01:35:32.296Z,48.31
2018-12-08T01:36:32.403Z,48.23
2018-12-08T01:37:32.172Z,48.26
2018-12-08T01:38:32.227Z,48.27
2018-12-08T01:39:32.179Z,48.33
2018-12-08T01:40:32.407Z,48.31
2018-12-08T01:41:31.911Z,48.34
2018-12-08T01:42:32.048Z,48.28
2018-12-08T01:43:32.284Z,48.29
2018-12-08T01:44:32.108Z,48.26
2018-12-08T01:45:32.205Z,48.33
2018-12-08T01:46:32.048Z,48.3
2018-12-08T01:47:32.060Z,48.3
2018-12-08T01:48:31.929Z,48.34
2018-12-08T01:49:32.387Z,48.31
2018-12-08T01:50:32.156Z,48.34
2018-12-08T01:51:32.468Z,48.28
2018-12-08T01:52:32.148Z,48.32
2018-12-08T01:53:31.910Z,48.35
2018-12-08T01:54:32.325Z,48.33
2018-12-08T01:55:32.293Z,48.29
2018-12-08T01:56:32.071Z,48.27
2018-12-08T01:57:32.234Z,48.32
2018-12-08T01:58:32.320Z,48.32
2018-12-08T01:59:32.190Z,48.29
2018-12-08T02:00:31.958Z,48.32
2018-12-08T02:01:32.022Z,48.32
2018-12-08T02:02:31.891Z,48.28
2018-12-08T02:03:32.018Z,48.33
2018-12-08T02:04:32.235Z,48.33
2018-12-08T02:05:31.950Z,48.3
2018-12-08T02:06:32.163Z,48.35
2018-12-08T02:07:31.990Z,48.32
2018-12-08T02:08:32.050Z,48.35
2018-12-08T02:09:31.909Z,48.29
2018-12-08T02:10:32.235Z,48.3
2018-12-08T02:11:32.125Z,48.33
2018-12-08T02:12:32.327Z,48.33
2018-12-08T02:13:32.142Z,48.38
2018-12-08T02:14:32.093Z,48.33
2018-12-08T02:15:32.128Z,48.33
2018-12-08T02:16:31.953Z,48.34
2018-12-08T02:17:32.621Z,48.34
2018-12-08T02:18:31.892Z,48.38
2018-12-08T02:19:32.484Z,48.35
2018-12-08T02:20:32.165Z,48.27
2018-12-08T02:21:32.178Z,48.35
2018-12-08T02:22:32.406Z,48.33
2018-12-08T02:23:31.922Z,48.37
2018-12-08T02:24:32.392Z,48.32
2018-12-08T02:25:32.208Z,48.35
2018-12-08T02:26:31.946Z,48.33
2018-12-08T02:27:32.117Z,48.41
2018-12-08T02:28:32.113Z,48.37
2018-12-08T02:29:32.607Z,48.36
2018-12-08T02:30:32.639Z,48.34
2018-12-08T02:31:32.070Z,48.33
2018-12-08T02:32:32.497Z,48.34
2018-12-08T02:33:31.952Z,48.32
2018-12-08T02:34:32.119Z,48.28
2018-12-08T02:35:31.994Z,48.33
2018-12-08T02:36:32.832Z,48.36
2018-12-08T02:37:31.926Z,48.29
2018-12-08T02:38:32.035Z,48.36
2018-12-08T02:39:32.314Z,48.37
2018-12-08T02:40:32.432Z,48.35
2018-12-08T02:41:32.227Z,48.34
2018-12-08T02:42:32.418Z,48.31
2018-12-08T02:43:32.085Z,48.34
2018-12-08T02:44:31.979Z,48.35
2018-12-08T02:45:31.902Z,48.34
2018-12-08T02:46:33.087Z,48.32
2018-12-08T02:47:32.393Z,48.32
2018-12-08T02:48:32.403Z,48.29
2018-12-08T02:49:32.191Z,48.3
2018-12-08T02:50:32.078Z,48.32
2018-12-08T02:51:31.930Z,48.29
2018-12-08T02:52:32.228Z,48.33
2018-12-08T02:53:32.740Z,48.31
2018-12-08T02:54:32.000Z,48.3
2018-12-08T02:55:32.322Z,48.33
2018-12-08T02:56:32.207Z,48.4
2018-12-08T02:57:32.362Z,48.34
2018-12-08T02:58:32.041Z,48.31
2018-12-08T02:59:32.105Z,48.32
2018-12-08T03:00:32.356Z,48.41
2018-12-08T03:01:32.104Z,48.34
2018-12-08T03:02:32.146Z,48.36
2018-12-08T03:03:31.896Z,48.29
2018-12-08T03:04:32.401Z,48.35
2018-12-08T03:05:32.752Z,48.32
2018-12-08T03:06:32.169Z,48.35
2018-12-08T03:07:32.206Z,48.37
2018-12-08T03:08:32.079Z,48.33
2018-12-08T03:09:31.979Z,48.34
2018-12-08T03:10:31.937Z,48.35
2018-12-08T03:11:32.058Z,48.33
2018-12-08T03:12:32.043Z,48.35
2018-12-08T03:13:32.304Z,48.34
2018-12-08T03:14:31.989Z,48.29
2018-12-08T03:15:32.012Z,48.34
2018-12-08T03:16:31.934Z,48.38
2018-12-08T03:17:32.564Z,48.36
2018-12-08T03:18:32.073Z,48.38
2018-12-08T03:19:32.236Z,48.39
2018-12-08T03:20:32.901Z,48.32
2018-12-08T03:21:32.302Z,48.37
2018-12-08T03:22:31.996Z,48.34
2018-12-08T03:23:31.968Z,48.37
2018-12-08T03:24:32.136Z,48.35
2018-12-08T03:25:31.902Z,48.3
2018-12-08T03:26:32.143Z,48.31
2018-12-08T03:27:32.337Z,48.41
2018-12-08T03:28:31.953Z,48.33
2018-12-08T03:29:32.034Z,48.35
2018-12-08T03:30:32.023Z,48.32
2018-12-08T03:31:32.643Z,48.35
2018-12-08T03:32:32.096Z,48.36
2018-12-08T03:33:31.932Z,48.37
2018-12-08T03:34:32.421Z,48.32
2018-12-08T03:35:32.052Z,48.37
2018-12-08T03:36:32.142Z,48.36
2018-12-08T03:37:31.920Z,48.36
2018-12-08T03:38:32.111Z,48.37
2018-12-08T03:39:31.914Z,48.35
2018-12-08T03:40:32.106Z,48.37
2018-12-08T03:41:32.190Z,48.32
2018-12-08T03:42:32.092Z,48.35
2018-12-08T03:43:32.077Z,48.39
2018-12-08T03:44:31.918Z,48.37
2018-12-08T03:45:32.053Z,48.39
2018-12-08T03:46:31.863Z,48.39
2018-12-08T03:47:32.110Z,48.36
2018-12-08T03:48:31.870Z,48.37
2018-12-08T03:49:32.074Z,48.4
2018-12-08T03:50:32.327Z,48.37
2018-12-08T03:51:31.915Z,48.38
2018-12-08T03:52:32.246Z,48.36
2018-12-08T03:53:31.998Z,48.39
2018-12-08T03:54:32.037Z,48.4
2018-12-08T03:55:32.068Z,48.44
2018-12-08T03:56:32.089Z,48.42
2018-12-08T03:57:31.840Z,48.38
2018-12-08T03:58:32.004Z,48.36
2018-12-08T03:59:32.306Z,48.42
2018-12-08T04:00:32.169Z,48.4
2018-12-08T04:01:32.334Z,48.38
2018-12-08T04:02:32.217Z,48.39
2018-12-08T04:03:31.994Z,48.34
2018-12-08T04:04:32.161Z,48.39
2018-12-08T04:05:31.882Z,48.41
2018-12-08T04:06:32.149Z,48.36
2018-12-08T04:07:31.978Z,48.43
2018-12-08T04:08:31.934Z,48.35
2018-12-08T04:09:32.329Z,48.37
2018-12-08T04:10:32.246Z,48.37
2018-12-08T04:11:32.081Z,48.4
2018-12-08T04:12:31.859Z,48.39
2018-12-08T04:13:32.131Z,48.39
2018-12-08T04:14:32.262Z,48.4
2018-12-08T04:15:32.028Z,48.41
2018-12-08T04:16:32.738Z,48.34
2018-12-08T04:17:32.003Z,48.41
2018-12-08T04:18:32.187Z,48.42
2018-12-08T04:19:31.804Z,48.38
2018-12-08T04:20:32.029Z,48.38
2018-12-08T04:21:31.877Z,48.4
2018-12-08T04:22:32.062Z,48.43
2018-12-08T04:23:32.119Z,48.41
2018-12-08T04:24:32.613Z,48.44
2018-12-08T04:25:32.227Z,48.38
2018-12-08T04:26:31.900Z,48.43
2018-12-08T04:27:32.309Z,48.42
2018-12-08T04:28:32.309Z,48.37
2018-12-08T04:29:32.050Z,48.39
2018-12-08T04:30:32.488Z,48.37
2018-12-08T04:31:31.992Z,48.46
2018-12-08T04:32:32.158Z,48.38
2018-12-08T04:33:31.840Z,48.44
2018-12-08T04:34:32.857Z,48.39
2018-12-08T04:35:32.176Z,48.41
2018-12-08T04:36:31.994Z,48.4
2018-12-08T04:37:31.827Z,48.35
2018-12-08T04:38:32.037Z,48.39
2018-12-08T04:39:32.233Z,48.34
2018-12-08T04:40:32.018Z,48.36
2018-12-08T04:41:32.095Z,48.45
2018-12-08T04:42:32.718Z,48.44
2018-12-08T04:43:32.147Z,48.42
2018-12-08T04:44:32.303Z,48.41
2018-12-08T04:45:32.092Z,48.41
2018-12-08T04:46:31.924Z,48.45
2018-12-08T04:47:32.009Z,48.42
2018-12-08T04:48:32.110Z,48.36
2018-12-08T04:49:31.950Z,48.4
2018-12-08T04:50:32.110Z,48.34
2018-12-08T04:51:31.825Z,48.35
2018-12-08T04:52:32.219Z,48.41
2018-12-08T04:53:32.065Z,48.4
2018-12-08T04:54:31.940Z,48.37
2018-12-08T04:55:32.108Z,48.39
2018-12-08T04:56:31.939Z,48.4
2018-12-08T04:57:32.768Z,48.4
2018-12-08T04:58:31.968Z,48.34
2018-12-08T04:59:32.091Z,48.4
2018-12-08T05:00:31.811Z,48.37
2018-12-08T05:01:32.494Z,48.35
2018-12-08T05:02:32.198Z,48.36
2018-12-08T05:03:32.199Z,48.37
2018-12-08T05:04:31.998Z,48.31
2018-12-08T05:05:32.333Z,48.27
2018-12-08T05:06:32.216Z,48.23
2018-12-08T05:07:31.948Z,48.21
2018-12-08T05:08:32.096Z,48.2
2018-12-08T05:09:32.245Z,48.2
2018-12-08T05:10:31.965Z,48.2
2018-12-08T05:11:32.218Z,48.15
2018-12-08T05:12:32.286Z,48.19
2018-12-08T05:13:32.079Z,48.13
2018-12-08T05:14:31.971Z,48.12
2018-12-08T05:15:32.355Z,48.13
2018-12-08T05:16:32.213Z,48.08
2018-12-08T05:17:31.945Z,48.2
2018-12-08T05:18:32.706Z,48.22
2018-12-08T05:19:32.017Z,48.13
2018-12-08T05:20:32.354Z,48.17
2018-12-08T05:21:31.914Z,48.21
2018-12-08T05:22:32.151Z,48.18
2018-12-08T05:23:31.853Z,48.13
2018-12-08T05:24:32.083Z,48.12
2018-12-08T05:25:31.932Z,48.17
2018-12-08T05:26:31.940Z,48.16
2018-12-08T05:27:31.885Z,48.13
2018-12-08T05:28:31.972Z,48.21
2018-12-08T05:29:32.146Z,48.15
2018-12-08T05:30:31.950Z,48.2
2018-12-08T05:31:32.074Z,48.16
2018-12-08T05:32:31.946Z,48.26
2018-12-08T05:33:31.903Z,48.14
2018-12-08T05:34:32.104Z,48.12
2018-12-08T05:35:31.997Z,48.16
2018-12-08T05:36:31.804Z,48.17
2018-12-08T05:37:32.265Z,48.21
2018-12-08T05:38:32.478Z,48.24
2018-12-08T05:39:32.085Z,48.16
2018-12-08T05:40:31.838Z,48.14
2018-12-08T05:41:32.141Z,48.12
2018-12-08T05:42:32.100Z,48.22
2018-12-08T05:43:32.072Z,48.15
2018-12-08T05:44:31.944Z,48.19
2018-12-08T05:45:32.293Z,48.18
2018-12-08T05:46:32.025Z,48.2
2018-12-08T05:47:32.243Z,48.22
2018-12-08T05:48:32.092Z,48.2
2018-12-08T05:49:32.457Z,48.19
2018-12-08T05:50:32.350Z,48.17
2018-12-08T05:51:31.977Z,48.18
2018-12-08T05:52:32.015Z,48.13
2018-12-08T05:53:31.889Z,48.18
2018-12-08T05:54:32.254Z,48.15
2018-12-08T05:55:31.711Z,48.19
2018-12-08T05:56:31.944Z,48.2
2018-12-08T05:57:32.042Z,48.14
2018-12-08T05:58:31.893Z,48.12
2018-12-08T05:59:32.086Z,48.21
2018-12-08T06:00:31.994Z,48.2
2018-12-08T06:01:32.179Z,48.13
2018-12-08T06:02:32.148Z,48.24
2018-12-08T06:03:32.023Z,48.12
2018-12-08T06:04:32.156Z,48.15
2018-12-08T06:05:31.864Z,48.17
2018-12-08T06:06:31.974Z,48.19
2018-12-08T06:07:31.836Z,48.09
2018-12-08T06:08:31.934Z,48.17
2018-12-08T06:09:32.153Z,48.12
2018-12-08T06:10:31.941Z,48.14
2018-12-08T06:11:32.152Z,48.16
2018-12-08T06:12:32.171Z,48.14
2018-12-08T06:13:32.024Z,48.19
2018-12-08T06:14:32.212Z,48.2
2018-12-08T06:15:31.951Z,48.16
2018-12-08T06:16:31.804Z,48.07
2018-12-08T06:17:31.944Z,48.05
2018-12-08T06:18:32.444Z,48.1
2018-12-08T06:19:32.165Z,48.14
2018-12-08T06:20:32.427Z,48.17
2018-12-08T06:21:31.924Z,48.04
2018-12-08T06:22:32.213Z,48.14
2018-12-08T06:23:32.077Z,48.16
2018-12-08T06:24:32.658Z,48.03
2018-12-08T06:25:32.018Z,48.07
2018-12-08T06:26:31.877Z,48.07
2018-12-08T06:27:32.020Z,48.08
2018-12-08T06:28:32.280Z,48.02
2018-12-08T06:29:31.939Z,48.02
2018-12-08T06:30:32.109Z,48.05
2018-12-08T06:31:31.979Z,48.09
2018-12-08T06:32:32.221Z,48.05
2018-12-08T06:33:31.868Z,48.03
2018-12-08T06:34:32.435Z,48.05
2018-12-08T06:35:32.012Z,48.08
2018-12-08T06:36:31.960Z,48.02
2018-12-08T06:37:32.099Z,47.99
2018-12-08T06:38:32.211Z,47.98
2018-12-08T06:39:32.681Z,48.08
2018-12-08T06:40:32.331Z,48.06
2018-12-08T06:41:32.216Z,48.06
2018-12-08T06:42:32.017Z,48
2018-12-08T06:43:32.033Z,48.02
2018-12-08T06:44:32.027Z,47.99
2018-12-08T06:45:32.215Z,48.04
2018-12-08T06:46:32.425Z,48.04
2018-12-08T06:47:32.818Z,47.93
2018-12-08T06:48:32.031Z,48.04
2018-12-08T06:49:32.201Z,47.95
2018-12-08T06:50:31.906Z,48.01
2018-12-08T06:51:31.934Z,47.96
2018-12-08T06:52:32.038Z,48
2018-12-08T06:53:31.975Z,47.9
2018-12-08T06:54:31.942Z,47.95
2018-12-08T06:55:31.934Z,47.96
2018-12-08T06:56:32.449Z,47.91
2018-12-08T06:57:31.797Z,48.04
2018-12-08T06:58:31.954Z,47.92
2018-12-08T06:59:31.765Z,47.9
2018-12-08T07:00:31.896Z,47.93
2018-12-08T07:01:32.090Z,47.88
2018-12-08T07:02:31.805Z,47.84
2018-12-08T07:03:32.015Z,47.84
2018-12-08T07:04:31.837Z,47.9
2018-12-08T07:05:31.930Z,47.9
2018-12-08T07:06:33.492Z,47.89
2018-12-08T07:07:31.998Z,47.96
2018-12-08T07:08:31.971Z,47.89
2018-12-08T07:09:31.801Z,47.87
2018-12-08T07:10:32.058Z,47.85
2018-12-08T07:11:31.930Z,47.81
2018-12-08T07:12:31.917Z,47.87
2018-12-08T07:13:32.089Z,47.84
2018-12-08T07:14:31.932Z,47.85
2018-12-08T07:15:31.865Z,47.77
2018-12-08T07:16:31.877Z,47.84
2018-12-08T07:17:32.276Z,47.83
2018-12-08T07:18:31.871Z,47.77
2018-12-08T07:19:31.944Z,47.84
2018-12-08T07:20:32.143Z,47.86
2018-12-08T07:21:32.027Z,47.76
2018-12-08T07:22:31.769Z,47.76
2018-12-08T07:23:32.334Z,47.81
2018-12-08T07:24:31.830Z,47.75
2018-12-08T07:25:31.937Z,47.79
2018-12-08T07:26:32.155Z,47.75
2018-12-08T07:27:31.748Z,47.83
2018-12-08T07:28:32.155Z,47.72
2018-12-08T07:29:31.974Z,47.75
2018-12-08T07:30:31.835Z,47.78
2018-12-08T07:31:32.918Z,47.72
2018-12-08T07:32:39.139Z,47.69
2018-12-08T07:33:31.809Z,47.7
2018-12-08T07:34:32.231Z,47.75
2018-12-08T07:35:32.111Z,47.77
2018-12-08T07:36:32.104Z,47.69
2018-12-08T07:37:32.103Z,47.75
2018-12-08T07:38:31.913Z,47.69
2018-12-08T07:39:32.131Z,47.75
2018-12-08T07:40:31.968Z,47.68
2018-12-08T07:41:32.042Z,47.68
2018-12-08T07:42:32.362Z,47.64
2018-12-08T07:43:31.875Z,47.72
2018-12-08T07:44:32.224Z,47.66
2018-12-08T07:45:32.354Z,47.69
2018-12-08T07:46:32.194Z,47.59
2018-12-08T07:47:31.880Z,47.7
2018-12-08T07:48:32.005Z,47.71
2018-12-08T07:49:31.863Z,47.67
2018-12-08T07:50:31.902Z,47.62
2018-12-08T07:51:31.742Z,47.68
2018-12-08T07:52:32.018Z,47.6
2018-12-08T07:53:32.019Z,47.63
2018-12-08T07:54:32.203Z,47.65
2018-12-08T07:55:32.346Z,47.67
2018-12-08T07:56:32.136Z,47.62
2018-12-08T07:57:31.881Z,47.54
2018-12-08T07:58:31.767Z,47.58
2018-12-08T07:59:31.945Z,47.63
2018-12-08T08:00:33.147Z,47.54
2018-12-08T08:01:32.164Z,47.62
2018-12-08T08:02:32.536Z,47.62
2018-12-08T08:03:32.112Z,47.62
2018-12-08T08:04:31.944Z,47.58
2018-12-08T08:05:32.215Z,47.62
2018-12-08T08:06:32.024Z,47.58
2018-12-08T08:07:31.941Z,47.54
2018-12-08T08:08:32.140Z,47.64
2018-12-08T08:09:32.030Z,47.58
2018-12-08T08:10:31.977Z,47.54
2018-12-08T08:11:31.961Z,47.62
2018-12-08T08:12:31.865Z,47.56
2018-12-08T08:13:31.932Z,47.55
2018-12-08T08:14:31.904Z,47.57
2018-12-08T08:15:32.183Z,47.58
2018-12-08T08:16:32.110Z,47.5
2018-12-08T08:17:31.938Z,47.53
2018-12-08T08:18:31.999Z,47.48
2018-12-08T08:19:32.133Z,47.52
2018-12-08T08:20:32.116Z,47.58
2018-12-08T08:21:31.818Z,47.52
2018-12-08T08:22:31.989Z,47.55
2018-12-08T08:23:31.857Z,47.41
2018-12-08T08:24:32.209Z,47.41
2018-12-08T08:25:33.122Z,47.47
2018-12-08T08:26:32.359Z,47.5
2018-12-08T08:27:32.140Z,47.46
2018-12-08T08:28:31.950Z,47.54
2018-12-08T08:29:32.068Z,47.45
2018-12-08T08:30:31.777Z,47.5
2018-12-08T08:31:32.870Z,47.47
2018-12-08T08:32:31.829Z,47.44
2018-12-08T08:33:31.831Z,47.34
2018-12-08T08:34:31.923Z,47.45
2018-12-08T08:35:32.181Z,47.45
2018-12-08T08:36:32.235Z,47.45
2018-12-08T08:37:31.856Z,47.41
2018-12-08T08:38:31.942Z,47.43
2018-12-08T08:39:31.852Z,47.51
2018-12-08T08:40:32.007Z,47.38
2018-12-08T08:41:31.798Z,47.4
2018-12-08T08:42:31.946Z,47.44
2018-12-08T08:43:31.810Z,47.41
2018-12-08T08:44:31.823Z,47.43
2018-12-08T08:45:31.959Z,47.46
2018-12-08T08:46:31.957Z,47.41
2018-12-08T08:47:32.478Z,47.36
2018-12-08T08:48:31.768Z,47.37
2018-12-08T08:49:32.007Z,47.39
2018-12-08T08:50:31.874Z,47.36
2018-12-08T08:51:31.902Z,47.43
2018-12-08T08:52:31.885Z,47.32
2018-12-08T08:53:31.872Z,47.37
2018-12-08T08:54:32.026Z,47.43
2018-12-08T08:55:32.113Z,47.46
2018-12-08T08:56:31.970Z,47.35
2018-12-08T08:57:31.787Z,47.36
2018-12-08T08:58:32.285Z,47.38
2018-12-08T08:59:32.392Z,47.3
2018-12-08T09:00:32.137Z,47.43
2018-12-08T09:01:31.810Z,47.36
2018-12-08T09:02:32.108Z,47.32
2018-12-08T09:03:32.127Z,47.35
2018-12-08T09:04:31.798Z,47.33
2018-12-08T09:05:32.184Z,47.29
2018-12-08T09:06:32.128Z,47.31
2018-12-08T09:07:32.004Z,47.33
2018-12-08T09:08:31.939Z,47.37
2018-12-08T09:09:31.772Z,47.35
2018-12-08T09:10:31.997Z,47.37
2018-12-08T09:11:31.732Z,47.41
2018-12-08T09:12:32.180Z,47.34
2018-12-08T09:13:31.857Z,47.33
2018-12-08T09:14:31.918Z,47.28
2018-12-08T09:15:31.925Z,47.3
2018-12-08T09:16:32.271Z,47.29
2018-12-08T09:17:32.221Z,47.25
2018-12-08T09:18:31.876Z,47.28
2018-12-08T09:19:31.730Z,47.26
2018-12-08T09:20:31.784Z,47.28
2018-12-08T09:21:31.931Z,47.24
2018-12-08T09:22:31.941Z,47.37
2018-12-08T09:23:31.986Z,47.25
2018-12-08T09:24:32.180Z,47.35
2018-12-08T09:25:31.883Z,47.29
2018-12-08T09:26:31.886Z,47.3
2018-12-08T09:27:31.758Z,47.24
2018-12-08T09:28:32.106Z,47.29
2018-12-08T09:29:32.519Z,47.3
2018-12-08T09:30:32.108Z,47.17
2018-12-08T09:31:31.999Z,47.27
2018-12-08T09:32:31.956Z,47.26
2018-12-08T09:33:32.133Z,47.28
2018-12-08T09:34:32.117Z,47.25
2018-12-08T09:35:31.872Z,47.15
2018-12-08T09:36:32.144Z,47.18
2018-12-08T09:37:31.791Z,46.96
2018-12-08T09:38:32.281Z,46.79
2018-12-08T09:39:32.320Z,47
2018-12-08T09:40:31.902Z,47.08
2018-12-08T09:41:31.931Z,47.05
2018-12-08T09:42:31.994Z,47.11
2018-12-08T09:43:31.829Z,47.11
2018-12-08T09:44:31.802Z,47.13
2018-12-08T09:45:32.128Z,47.21
2018-12-08T09:46:31.879Z,47.1
2018-12-08T09:47:32.149Z,47.11
2018-12-08T09:48:32.152Z,47.14
2018-12-08T09:49:31.935Z,47.16
2018-12-08T09:50:32.128Z,47.19
2018-12-08T09:51:32.143Z,47.22
2018-12-08T09:52:32.083Z,47.11
2018-12-08T09:53:32.924Z,47.22
2018-12-08T09:54:31.869Z,47.16
2018-12-08T09:55:31.823Z,47.18
2018-12-08T09:56:31.856Z,47.22
2018-12-08T09:57:32.368Z,47.16
2018-12-08T09:58:32.007Z,47.21
2018-12-08T09:59:32.296Z,47.1
2018-12-08T10:00:32.011Z,47.22
2018-12-08T10:01:32.129Z,47.13
2018-12-08T10:02:31.797Z,47.17
2018-12-08T10:03:31.939Z,47.12
2018-12-08T10:04:31.598Z,47.18
2018-12-08T10:05:31.735Z,47.12
2018-12-08T10:06:32.076Z,47.11
2018-12-08T10:07:32.955Z,47.11
2018-12-08T10:08:31.947Z,47.08
2018-12-08T10:09:32.085Z,47.09
2018-12-08T10:10:31.885Z,47.1
2018-12-08T10:11:32.018Z,47.17
2018-12-08T10:12:32.066Z,47.04
2018-12-08T10:13:32.306Z,47.14
2018-12-08T10:14:31.869Z,47.13
2018-12-08T10:15:31.714Z,47.06
2018-12-08T10:16:31.949Z,47.08
2018-12-08T10:17:31.893Z,47.15
2018-12-08T10:18:31.753Z,47.08
2018-12-08T10:19:31.995Z,47.09
2018-12-08T10:20:31.765Z,47.06
2018-12-08T10:21:31.911Z,47.08
2018-12-08T10:22:31.680Z,47.12
2018-12-08T10:23:31.896Z,47.11
2018-12-08T10:24:32.154Z,47.01
2018-12-08T10:25:31.993Z,47.12
2018-12-08T10:26:32.069Z,47.04
2018-12-08T10:27:31.757Z,47.02
2018-12-08T10:28:31.852Z,47.15
2018-12-08T10:29:31.985Z,47.09
2018-12-08T10:30:31.819Z,47.04
2018-12-08T10:31:31.694Z,47.05
2018-12-08T10:32:31.703Z,47.05
2018-12-08T10:33:31.816Z,47.02
2018-12-08T10:34:31.782Z,47.14
2018-12-08T10:35:32.215Z,47
2018-12-08T10:36:32.110Z,47.1
2018-12-08T10:37:31.799Z,47.07
2018-12-08T10:38:31.856Z,47.17
2018-12-08T10:39:31.929Z,47.04
2018-12-08T10:40:31.677Z,47.07
2018-12-08T10:41:31.936Z,47.08
2018-12-08T10:42:31.777Z,47.06
2018-12-08T10:43:32.004Z,46.99
2018-12-08T10:44:31.907Z,47.06
2018-12-08T10:45:32.291Z,47.09
2018-12-08T10:46:31.744Z,47.02
2018-12-08T10:47:32.255Z,47.07
2018-12-08T10:48:31.712Z,47.1
2018-12-08T10:49:31.927Z,47.12
2018-12-08T10:50:32.173Z,47.08
2018-12-08T10:51:32.194Z,47
2018-12-08T10:52:32.002Z,47.24
2018-12-08T10:53:31.814Z,46.93
2018-12-08T10:54:31.966Z,47.06
2018-12-08T10:55:31.976Z,46.99
2018-12-08T10:56:32.074Z,46.79
2018-12-08T10:57:32.065Z,46.35
2018-12-08T10:58:32.581Z,46.13
2018-12-08T10:59:31.792Z,46.01
2018-12-08T11:00:32.112Z,46.14
2018-12-08T11:01:32.312Z,45.91
2018-12-08T11:02:31.906Z,45.98
2018-12-08T11:03:31.717Z,46.36
2018-12-08T11:04:32.168Z,45.89
2018-12-08T11:05:31.770Z,46.07
2018-12-08T11:06:32.256Z,45.88
2018-12-08T11:07:32.195Z,45.86
2018-12-08T11:08:31.979Z,45.92
2018-12-08T11:09:32.097Z,45.87
2018-12-08T11:10:32.019Z,45.9
2018-12-08T11:11:32.142Z,46.17
2018-12-08T11:12:31.782Z,45.97
2018-12-08T11:13:32.157Z,45.78
2018-12-08T11:14:31.939Z,47.2
2018-12-08T11:15:31.973Z,46.21
2018-12-08T11:16:31.716Z,46.09
2018-12-08T11:17:31.804Z,46.25
2018-12-08T11:18:31.900Z,46.01
2018-12-08T11:19:32.121Z,46.3
2018-12-08T11:20:31.811Z,46.27
2018-12-08T11:21:32.184Z,46.16
2018-12-08T11:22:31.846Z,46.04
2018-12-08T11:23:32.011Z,46.08
2018-12-08T11:24:32.769Z,46.18
2018-12-08T11:25:32.588Z,46.16
2018-12-08T11:26:32.327Z,46.22
2018-12-08T11:27:31.731Z,46.25
2018-12-08T11:28:31.908Z,46.17
2018-12-08T11:29:31.726Z,46.2
2018-12-08T11:30:31.928Z,46.37
2018-12-08T11:31:31.722Z,46.49
2018-12-08T11:32:32.070Z,46.89
2018-12-08T11:33:32.040Z,46.91
2018-12-08T11:34:31.829Z,46.91
2018-12-08T11:35:32.134Z,46.62
2018-12-08T11:36:31.969Z,46.61
2018-12-08T11:37:32.261Z,46.6
2018-12-08T11:38:31.819Z,46.46
2018-12-08T11:39:31.928Z,46.44
2018-12-08T11:40:31.962Z,46.44
2018-12-08T11:41:31.818Z,46.67
2018-12-08T11:42:32.107Z,46.53
2018-12-08T11:43:31.744Z,46.48
2018-12-08T11:44:31.860Z,46.59
2018-12-08T11:45:32.340Z,46.45
2018-12-08T11:46:32.282Z,46.21
2018-12-08T11:47:32.178Z,46.21
2018-12-08T11:48:32.046Z,46.24
2018-12-08T11:49:31.935Z,46.32
2018-12-08T11:50:32.107Z,46.26
2018-12-08T11:51:32.002Z,46.56
2018-12-08T11:52:31.900Z,46.38
2018-12-08T11:53:31.904Z,46.38
2018-12-08T11:54:31.750Z,46.37
2018-12-08T11:55:31.671Z,46.32
2018-12-08T11:56:31.805Z,46.33
2018-12-08T11:57:32.419Z,46.39
2018-12-08T11:58:31.704Z,46.37
2018-12-08T11:59:31.951Z,46.34
2018-12-08T12:00:31.697Z,46.26
2018-12-08T12:01:31.666Z,46.35
2018-12-08T12:02:32.025Z,46.38
2018-12-08T12:03:31.786Z,46.31
2018-12-08T12:04:31.840Z,46.44
2018-12-08T12:05:31.709Z,46.35
2018-12-08T12:06:31.877Z,46.33
2018-12-08T12:07:31.738Z,46.46
2018-12-08T12:08:31.764Z,46.5
2018-12-08T12:09:31.647Z,46.37
2018-12-08T12:10:31.683Z,46.42
2018-12-08T12:11:31.979Z,46.45
2018-12-08T12:12:31.683Z,46.37
2018-12-08T12:13:31.888Z,46.42
2018-12-08T12:14:31.977Z,46.4
2018-12-08T12:15:31.795Z,46.39
2018-12-08T12:16:31.915Z,46.26
2018-12-08T12:17:31.768Z,46.3
2018-12-08T12:18:31.974Z,46.36
2018-12-08T12:19:31.960Z,46.3
2018-12-08T12:20:31.826Z,46.36
2018-12-08T12:21:31.839Z,46.33
2018-12-08T12:22:31.757Z,46.52
2018-12-08T12:23:31.917Z,46.34
2018-12-08T12:24:32.002Z,46.22
2018-12-08T12:25:31.918Z,46.44
2018-12-08T12:26:32.017Z,46.41
2018-12-08T12:27:31.810Z,46.52
2018-12-08T12:28:31.560Z,46.53
2018-12-08T12:29:32.060Z,46.56
2018-12-08T12:30:32.155Z,46.58
2018-12-08T12:31:32.188Z,46.75
2018-12-08T12:32:31.982Z,46.71
2018-12-08T12:33:32.212Z,46.72
2018-12-08T12:34:32.725Z,46.85
2018-12-08T12:35:31.852Z,46.75
2018-12-08T12:36:31.986Z,46.86
2018-12-08T12:37:31.848Z,46.86
2018-12-08T12:38:31.712Z,46.76
2018-12-08T12:39:31.866Z,46.86
2018-12-08T12:40:32.111Z,46.77
2018-12-08T12:41:31.999Z,46.89
2018-12-08T12:42:32.242Z,46.83
2018-12-08T12:43:31.901Z,46.87
2018-12-08T12:44:32.127Z,46.79
2018-12-08T12:45:32.147Z,46.92
2018-12-08T12:46:32.083Z,46.85
2018-12-08T12:47:31.763Z,46.79
2018-12-08T12:48:32.173Z,46.85
2018-12-08T12:49:31.809Z,46.83
2018-12-08T12:50:31.734Z,46.83
2018-12-08T12:51:31.968Z,46.89
2018-12-08T12:52:32.137Z,46.88
2018-12-08T12:53:31.775Z,46.78
2018-12-08T12:54:31.964Z,46.88
2018-12-08T12:55:32.576Z,46.88